Weather History for Montevideo, MN

Change the Weather History Date:

Tuesday, February 19, 2013

  Actual Average Record
Temperature  
Mean Temperature -6 °F -  
Max Temperature 0 °F 28 °F 60 °F (1981)
Min Temperature -11 °F 10 °F -21 °F (1966)
Degree Days  
Heating Degree Days 70    
Moisture  
Dew Point -10 °F    
Average Humidity 80    
Maximum Humidity 85    
Minimum Humidity 71    
Precipitation  
Precipitation 0.00 in - - ()
Sea Level Pressure  
Sea Level Pressure 30.25 in    
Wind  
Wind Speed 22 mph (North)    
Max Wind Speed 29 mph    
Max Gust Speed 39 mph    
Visibility 8 miles    
Events      
Averages and records for this station are not official NWS values.
T = Trace of Precipitation, MM = Missing Value Source: NWS Daily Summary

Daily Weather History Graph

Daily Weather History Graph

Search for Another Location

Airport:

Trip Planner

Search our weather history database for the weather conditions in past years. The results will help you decide how hot, cold, wet, or windy it might be!

Date:

Astronomy

Feb. 19, 2013 Rise Set
Actual Time 7:16 AM CST 5:56 PM CST
Civil Twilight 6:47 AM CST 6:26 PM CST
Nautical Twilight 6:12 AM CST 7:01 PM CST
Astronomical Twilight 5:39 AM CST 7:35 PM CST
Moon 12:21 PM CST (2/19) 2:57 AM CST (2/19)
Length of Visible Light 11h 39m
Length of Day
10h 40m
Waxing Gibbous, 67% of the Moon is Illuminated
Feb 19
Waxing Gibbous
Feb 25
Full
Mar 4
Last Quarter
Mar 11
New
Mar 19
First Quarter

Hourly Weather History & Observations

Time (CST) Temp. Windchill Dew Point Humidity Pressure Visibility Wind Dir Wind Speed Gust Speed Precip Events Conditions
12:14 AM -0.4 °F -25.6 °F -4.0 °F 85% 30.02 in 3.0 mi North 27.6 mph 34.5 mph N/A   Overcast
12:34 AM -0.4 °F -23.8 °F -4.0 °F 85% 30.03 in 3.0 mi North 23.0 mph 33.4 mph N/A   Overcast
12:54 AM -0.4 °F -25.2 °F -5.8 °F 78% 30.03 in 7.0 mi North 26.5 mph 35.7 mph N/A   Overcast
1:14 AM -0.4 °F -23.8 °F -5.8 °F 78% 30.04 in 7.0 mi North 23.0 mph 34.5 mph N/A   Overcast
1:34 AM -0.4 °F -24.7 °F -5.8 °F 78% 30.04 in 7.0 mi North 25.3 mph 35.7 mph N/A   Overcast
1:54 AM -0.4 °F -26.0 °F -5.8 °F 78% 30.05 in 10.0 mi North 28.8 mph 39.1 mph N/A   Overcast
2:14 AM -0.4 °F -23.3 °F -5.8 °F 78% 30.06 in 7.0 mi North 21.9 mph 33.4 mph N/A   Overcast
2:34 AM -0.4 °F -23.8 °F -5.8 °F 78% 30.06 in 7.0 mi North 23.0 mph 35.7 mph N/A   Overcast
2:53 AM -0.4 °F -25.6 °F -5.8 °F 78% 30.07 in 5.0 mi North 27.6 mph 33.4 mph N/A   Overcast
3:14 AM -0.4 °F -24.3 °F -5.8 °F 78% 30.08 in 10.0 mi North 24.2 mph 31.1 mph N/A   Overcast
3:34 AM -0.4 °F -25.2 °F -5.8 °F 78% 30.08 in 4.0 mi North 26.5 mph 35.7 mph N/A   Overcast
3:54 AM -2.2 °F -26.2 °F -5.8 °F 85% 30.09 in 7.0 mi North 23.0 mph 36.8 mph N/A   Overcast
4:14 AM -2.2 °F -25.7 °F -5.8 °F 85% 30.09 in 7.0 mi North 21.9 mph 29.9 mph N/A   Overcast
4:34 AM -2.2 °F -26.7 °F -5.8 °F 85% 30.10 in 3.0 mi North 24.2 mph 33.4 mph N/A   Overcast
4:54 AM -2.2 °F -27.6 °F -5.8 °F 85% 30.10 in 3.0 mi North 26.5 mph 33.4 mph N/A   Overcast
5:14 AM -2.2 °F -27.1 °F -7.6 °F 78% 30.12 in 10.0 mi North 25.3 mph 31.1 mph N/A   Overcast
5:53 AM -5.8 °F -31.5 °F -9.4 °F 84% 30.15 in 4.0 mi North 24.2 mph 35.7 mph N/A   Overcast
6:14 AM -5.8 °F -32.0 °F -9.4 °F 84% 30.16 in 3.0 mi North 25.3 mph 34.5 mph N/A   Overcast
6:34 AM -7.6 °F -33.9 °F -11.2 °F 84% 30.16 in 7.0 mi North 24.2 mph 34.5 mph N/A   Overcast
6:54 AM -7.6 °F -31.7 °F -11.2 °F 84% 30.18 in 7.0 mi North 19.6 mph 31.1 mph N/A   Overcast
7:14 AM -7.6 °F -33.9 °F -11.2 °F 84% 30.18 in 7.0 mi North 24.2 mph 32.2 mph N/A   Overcast
7:34 AM -7.6 °F -34.8 °F -11.2 °F 84% 30.19 in 4.0 mi North 26.5 mph 32.2 mph N/A   Overcast
7:54 AM -7.6 °F -32.3 °F -11.2 °F 84% 30.20 in 3.0 mi North 20.7 mph 33.4 mph N/A   Overcast
8:14 AM -7.6 °F -34.4 °F -11.2 °F 84% 30.22 in 1.8 mi North 25.3 mph 32.2 mph N/A   Overcast
8:34 AM -7.6 °F -33.9 °F -11.2 °F 84% 30.23 in 1.8 mi North 24.2 mph 31.1 mph N/A   Overcast
8:54 AM -7.6 °F -32.9 °F -13.0 °F 77% 30.23 in 4.0 mi North 21.9 mph 32.2 mph N/A   Haze
9:14 AM -7.6 °F -33.4 °F -13.0 °F 77% 30.24 in 7.0 mi North 23.0 mph 33.4 mph N/A   Overcast
9:34 AM -7.6 °F -34.4 °F -13.0 °F 77% 30.24 in 10.0 mi North 25.3 mph 34.5 mph N/A   Overcast
9:54 AM -7.6 °F -34.8 °F -13.0 °F 77% 30.25 in 10.0 mi North 26.5 mph 32.2 mph N/A   Overcast
10:14 AM -7.6 °F -34.8 °F -14.8 °F 71% 30.26 in 10.0 mi North 26.5 mph 33.4 mph N/A   Overcast
10:34 AM -7.6 °F -32.3 °F -13.0 °F 77% 30.26 in 10.0 mi North 20.7 mph 33.4 mph N/A   Overcast
11:14 AM -7.6 °F -32.3 °F -13.0 °F 77% 30.28 in 7.0 mi North 20.7 mph 29.9 mph N/A   Overcast
11:34 AM -7.6 °F -33.4 °F -13.0 °F 77% 30.29 in 7.0 mi North 23.0 mph 32.2 mph N/A   Overcast
11:54 AM -7.6 °F -32.3 °F -11.2 °F 84% 30.29 in 4.0 mi North 20.7 mph 27.6 mph N/A   Haze
12:14 PM -5.8 °F -31.5 °F -11.2 °F 77% 30.29 in 7.0 mi North 24.2 mph 31.1 mph N/A   Overcast
12:34 PM -5.8 °F -31.0 °F -11.2 °F 77% 30.28 in 10.0 mi North 23.0 mph 29.9 mph N/A   Mostly Cloudy
12:54 PM -5.8 °F -31.0 °F -11.2 °F 77% 30.29 in 7.0 mi North 23.0 mph 32.2 mph N/A   Mostly Cloudy
1:14 PM -5.8 °F -29.9 °F -11.2 °F 77% 30.30 in 10.0 mi North 20.7 mph 26.5 mph N/A   Overcast
1:34 PM -5.8 °F -29.4 °F -11.2 °F 77% 30.30 in 7.0 mi North 19.6 mph 26.5 mph N/A   Overcast
1:54 PM -5.8 °F -29.4 °F -9.4 °F 84% 30.30 in 5.0 mi North 19.6 mph 28.8 mph N/A   Haze
2:14 PM -5.8 °F -30.5 °F -11.2 °F 77% 30.29 in 10.0 mi North 21.9 mph 25.3 mph N/A   Overcast
2:34 PM -4.0 °F -26.4 °F -9.4 °F 78% 30.30 in 10.0 mi North 18.4 mph 24.2 mph N/A   Overcast
2:54 PM -4.0 °F -25.8 °F -9.4 °F 78% 30.31 in 10.0 mi NNW 17.3 mph 25.3 mph N/A   Mostly Cloudy
3:14 PM -4.0 °F -26.4 °F -9.4 °F 78% 30.32 in 10.0 mi North 18.4 mph 23.0 mph N/A   Mostly Cloudy
3:34 PM -4.0 °F -27.0 °F -9.4 °F 78% 30.32 in 10.0 mi North 19.6 mph 25.3 mph N/A   Mostly Cloudy
3:54 PM -4.0 °F -26.4 °F -9.4 °F 78% 30.32 in 10.0 mi North 18.4 mph 24.2 mph N/A   Mostly Cloudy
4:14 PM -4.0 °F -27.0 °F -9.4 °F 78% 30.33 in 10.0 mi North 19.6 mph 24.2 mph N/A   Overcast
4:34 PM -4.0 °F -27.0 °F -9.4 °F 78% 30.34 in 10.0 mi North 19.6 mph 25.3 mph N/A   Overcast
4:54 PM -4.0 °F -27.0 °F -9.4 °F 78% 30.34 in 10.0 mi North 19.6 mph - N/A   Overcast
5:14 PM -5.8 °F -28.8 °F -11.2 °F 77% 30.35 in 7.0 mi North 18.4 mph 28.8 mph N/A   Overcast
6:34 PM -7.6 °F -30.5 °F -11.2 °F 84% 30.36 in 10.0 mi North 17.3 mph - N/A   Overcast
6:54 PM -7.6 °F -27.5 °F -11.2 °F 84% 30.38 in 10.0 mi North 12.7 mph - N/A   Overcast
7:14 PM -7.6 °F -27.5 °F -11.2 °F 84% 30.37 in 10.0 mi North 12.7 mph 17.3 mph N/A   Overcast
7:54 PM -7.6 °F -27.5 °F -11.2 °F 84% 30.38 in 10.0 mi North 12.7 mph - N/A   Overcast
8:14 PM -7.6 °F -25.7 °F -11.2 °F 84% 30.38 in 10.0 mi North 10.4 mph - N/A   Overcast
8:34 PM -9.4 °F -26.8 °F -13.0 °F 84% 30.39 in 10.0 mi North 9.2 mph - N/A   Overcast
8:54 PM -9.4 °F -26.8 °F -13.0 °F 84% 30.40 in 10.0 mi North 9.2 mph - N/A   Mostly Cloudy
9:14 PM -9.4 °F -27.9 °F -14.8 °F 77% 30.40 in 10.0 mi North 10.4 mph - N/A   Scattered Clouds
9:34 PM -9.4 °F -29.8 °F -14.8 °F 77% 30.40 in 10.0 mi North 12.7 mph - N/A   Scattered Clouds
9:54 PM -9.4 °F -28.9 °F -14.8 °F 77% 30.41 in 10.0 mi North 11.5 mph - N/A   Clear
10:14 PM -11.2 °F -31.1 °F -14.8 °F 84% 30.41 in 10.0 mi North 11.5 mph - N/A   Clear
10:34 PM -11.2 °F -32.1 °F -14.8 °F 84% 30.42 in 10.0 mi NNW 12.7 mph - N/A   Clear
10:54 PM -11.2 °F -30.1 °F -14.8 °F 84% 30.42 in 10.0 mi North 10.4 mph - N/A   Clear
11:14 PM -11.2 °F -29.0 °F -14.8 °F 84% 30.43 in 10.0 mi North 9.2 mph - N/A   Clear
11:34 PM -11.2 °F -29.0 °F -16.6 °F 77% 30.43 in 10.0 mi NNW 9.2 mph - N/A   Clear
11:54 PM -11.2 °F -29.0 °F -16.6 °F 77% 30.43 in 10.0 mi North 9.2 mph - N/A   Clear